Time;durP1;ratioP1;P1;durP2;ratioP2;P2;SDS_P1;SDS_P2;PMS_P1;PMS_P2;Temp;Humidity;BMP_temperature;BMP_pressure;BME280_temperature;BME280_humidity;BME280_pressure;Samples;Min_cycle;Max_cycle;Signal;HPM_P1;HPM_P2
2022/09/14 00:02:23;;;;;;;;;12.33;11.00;;;;;;;;5057547;28;45308;-72
2022/09/14 00:04:50;;;;;;;;;12.00;10.33;;;;;;;;5052678;28;45559;-72
2022/09/14 00:07:15;;;;;;;;;14.00;12.67;;;;;;;;5056566;28;45454;-72
2022/09/14 00:09:40;;;;;;;;;20.33;15.00;;;;;;;;5060292;28;45630;-72
2022/09/14 00:12:05;;;;;;;;;15.00;13.00;;;;;;;;5058634;28;45304;-72
2022/09/14 00:14:31;;;;;;;;;16.67;15.00;;;;;;;;5061040;28;45229;-72
2022/09/14 00:16:56;;;;;;;;;15.67;14.00;;;;;;;;5059129;28;45225;-72
2022/09/14 00:19:22;;;;;;;;;15.67;13.67;;;;;;;;5066927;28;47135;-72
2022/09/14 00:21:52;;;;;;;;;15.33;15.33;;;;;;;;5052331;28;45389;-72
2022/09/14 00:24:17;;;;;;;;;13.67;12.00;;;;;;;;5055295;28;45370;-72
2022/09/14 00:26:42;;;;;;;;;13.00;13.00;;;;;;;;5058220;28;45280;-72
2022/09/14 00:29:08;;;;;;;;;16.33;13.33;;;;;;;;5050389;28;45327;-72
2022/09/14 00:31:35;;;;;;;;;16.00;16.00;;;;;;;;5059812;28;45267;-72
2022/09/14 00:34:01;;;;;;;;;13.33;12.00;;;;;;;;5050988;28;45375;-72
2022/09/14 00:36:27;;;;;;;;;16.00;13.67;;;;;;;;5048058;28;45305;-72
2022/09/14 00:38:56;;;;;;;;;17.00;15.67;;;;;;;;5051048;28;45450;-73
2022/09/14 00:41:23;;;;;;;;;18.67;16.00;;;;;;;;5052741;28;46168;-72
2022/09/14 00:44:18;;;;;;;;;15.00;14.00;;;;;;;;5054468;28;45324;-72
2022/09/14 00:46:47;;;;;;;;;18.33;15.00;;;;;;;;5022895;28;45407;-72
2022/09/14 00:49:12;;;;;;;;;16.33;14.00;;;;;;;;5057762;28;45474;-72
2022/09/14 00:51:40;;;;;;;;;14.67;14.33;;;;;;;;5055207;28;45321;-72
2022/09/14 00:54:08;;;;;;;;;18.33;17.00;;;;;;;;5056160;28;45199;-72
2022/09/14 00:56:33;;;;;;;;;14.00;13.67;;;;;;;;5056890;28;45305;-72
2022/09/14 00:59:00;;;;;;;;;17.00;15.33;;;;;;;;5049579;28;45327;-72
2022/09/14 01:01:25;;;;;;;;;18.00;15.67;;;;;;;;5058456;28;45705;-72
2022/09/14 01:03:51;;;;;;;;;18.00;13.67;;;;;;;;5059651;28;45224;-72
2022/09/14 01:06:22;;;;;;;;;11.67;11.67;;;;;;;;5057463;28;45194;-72
2022/09/14 01:08:47;;;;;;;;;16.67;14.33;;;;;;;;5051417;28;45395;-72
2022/09/14 01:11:15;;;;;;;;;14.00;11.67;;;;;;;;5055216;28;45303;-72
2022/09/14 01:13:53;;;;;;;;;14.00;12.00;;;;;;;;5071834;28;46313;-72
2022/09/14 01:16:18;;;;;;;;;9.67;9.33;;;;;;;;5047943;28;45282;-73
2022/09/14 01:18:45;;;;;;;;;9.00;7.67;;;;;;;;5054359;28;45303;-73
2022/09/14 01:21:14;;;;;;;;;10.00;9.67;;;;;;;;5051970;28;45297;-73
2022/09/14 01:23:40;;;;;;;;;10.00;10.00;;;;;;;;5056199;28;45263;-73
2022/09/14 01:26:08;;;;;;;;;10.00;9.00;;;;;;;;5055673;28;45485;-73
2022/09/14 01:28:39;;;;;;;;;12.00;11.00;;;;;;;;5053174;28;45291;-73
2022/09/14 01:31:08;;;;;;;;;11.33;11.33;;;;;;;;5059118;28;46231;-73
2022/09/14 01:33:37;;;;;;;;;10.33;10.00;;;;;;;;5044775;28;45398;-73
2022/09/14 01:36:05;;;;;;;;;11.00;11.00;;;;;;;;5056157;28;45272;-73
2022/09/14 01:38:36;;;;;;;;;6.67;6.00;;;;;;;;5046336;28;45363;-73
2022/09/14 01:41:03;;;;;;;;;10.67;10.67;;;;;;;;5047735;28;45637;-73
2022/09/14 01:43:28;;;;;;;;;8.33;8.00;;;;;;;;5064789;28;45465;-73
2022/09/14 01:45:56;;;;;;;;;10.00;8.33;;;;;;;;5075299;28;45315;-73
2022/09/14 01:48:29;;;;;;;;;7.67;7.00;;;;;;;;5053150;28;45438;-73
2022/09/14 01:50:56;;;;;;;;;10.67;8.00;;;;;;;;5054554;28;45409;-71
2022/09/14 01:53:36;;;;;;;;;7.00;7.00;;;;;;;;5055087;27;45307;-71
2022/09/14 01:56:14;;;;;;;;;4.00;4.00;;;;;;;;5056689;28;45362;-71
2022/09/14 01:58:59;;;;;;;;;7.67;6.33;;;;;;;;5048734;28;45365;-71
2022/09/14 02:01:29;;;;;;;;;4.33;4.00;;;;;;;;5055974;28;45474;-73
2022/09/14 02:03:58;;;;;;;;;5.67;5.67;;;;;;;;5059112;28;45240;-73
2022/09/14 02:06:28;;;;;;;;;4.33;4.33;;;;;;;;5054456;28;44713;-73
2022/09/14 02:08:54;;;;;;;;;7.67;7.67;;;;;;;;5051397;28;45522;-73
2022/09/14 02:11:19;;;;;;;;;5.33;5.33;;;;;;;;5053088;28;45282;-73
2022/09/14 02:13:44;;;;;;;;;5.33;5.33;;;;;;;;5052612;28;45212;-73
2022/09/14 02:16:10;;;;;;;;;6.00;6.00;;;;;;;;5048199;28;45284;-73
2022/09/14 02:18:36;;;;;;;;;7.33;5.67;;;;;;;;5053108;28;45228;-73
2022/09/14 02:21:12;;;;;;;;;6.00;5.00;;;;;;;;5052935;28;45376;-73
2022/09/14 02:23:38;;;;;;;;;6.67;4.33;;;;;;;;5051270;28;45384;-73
2022/09/14 02:26:03;;;;;;;;;6.00;6.00;;;;;;;;5055855;28;45311;-73
2022/09/14 02:28:29;;;;;;;;;5.00;5.00;;;;;;;;5051695;28;45582;-74
2022/09/14 02:31:17;;;;;;;;;6.67;5.67;;;;;;;;5059153;28;45936;-73
2022/09/14 02:34:01;;;;;;;;;8.33;6.00;;;;;;;;5036853;28;45422;-73
2022/09/14 02:36:40;;;;;;;;;4.33;4.33;;;;;;;;5055798;28;45310;-73
2022/09/14 02:39:21;;;;;;;;;5.33;5.00;;;;;;;;5083053;27;47250;-74
2022/09/14 02:41:54;;;;;;;;;6.67;5.00;;;;;;;;5045389;28;46192;-73
2022/09/14 02:44:28;;;;;;;;;5.67;5.67;;;;;;;;5050877;28;45447;-73
2022/09/14 02:47:02;;;;;;;;;7.00;7.00;;;;;;;;5063452;28;45455;-73
2022/09/14 02:49:41;;;;;;;;;4.00;4.00;;;;;;;;5053528;28;45308;-73
2022/09/14 02:52:12;;;;;;;;;4.67;4.67;;;;;;;;5050458;28;45544;-73
2022/09/14 02:54:41;;;;;;;;;5.67;5.67;;;;;;;;5055224;28;45332;-73
2022/09/14 02:57:06;;;;;;;;;8.00;6.33;;;;;;;;5067633;28;45335;-73
2022/09/14 02:59:31;;;;;;;;;5.67;5.67;;;;;;;;5063406;28;45837;-74
2022/09/14 03:01:58;;;;;;;;;5.33;5.33;;;;;;;;5055168;28;45248;-74
2022/09/14 03:04:23;;;;;;;;;4.67;4.00;;;;;;;;5051794;28;45378;-73
2022/09/14 03:06:49;;;;;;;;;5.33;4.33;;;;;;;;5044833;28;45216;-73
2022/09/14 03:09:14;;;;;;;;;5.00;5.00;;;;;;;;5050709;28;45291;-74
2022/09/14 03:11:39;;;;;;;;;4.67;4.67;;;;;;;;5047999;28;45885;-74
2022/09/14 03:14:04;;;;;;;;;7.00;6.33;;;;;;;;5047923;28;45418;-74
2022/09/14 03:16:29;;;;;;;;;7.00;5.67;;;;;;;;5077768;27;45258;-74
2022/09/14 03:18:54;;;;;;;;;5.33;5.33;;;;;;;;5051161;27;45214;-74
2022/09/14 03:21:20;;;;;;;;;5.00;5.00;;;;;;;;5047626;28;45220;-74
2022/09/14 03:23:46;;;;;;;;;6.67;4.67;;;;;;;;5052326;28;45513;-74
2022/09/14 03:26:13;;;;;;;;;5.00;5.00;;;;;;;;5049611;28;45285;-74
2022/09/14 03:28:38;;;;;;;;;5.00;5.00;;;;;;;;5052259;28;45478;-74
2022/09/14 03:31:04;;;;;;;;;4.67;4.67;;;;;;;;5053712;28;45445;-74
2022/09/14 03:33:30;;;;;;;;;5.67;5.67;;;;;;;;5053960;28;45233;-74
2022/09/14 03:35:55;;;;;;;;;7.67;7.00;;;;;;;;5057962;28;45279;-74
2022/09/14 03:38:21;;;;;;;;;5.67;5.67;;;;;;;;5052923;28;45371;-74
2022/09/14 03:40:47;;;;;;;;;6.67;6.67;;;;;;;;5043045;28;45471;-74
2022/09/14 03:43:12;;;;;;;;;5.67;5.67;;;;;;;;5059144;28;45423;-74
2022/09/14 03:45:37;;;;;;;;;7.67;6.67;;;;;;;;5046041;28;45253;-74
2022/09/14 03:48:04;;;;;;;;;7.33;5.00;;;;;;;;5048049;28;45565;-74
2022/09/14 03:50:29;;;;;;;;;6.00;5.67;;;;;;;;5046685;28;45995;-74
2022/09/14 03:52:55;;;;;;;;;10.00;7.67;;;;;;;;5051905;28;45364;-74
2022/09/14 03:55:20;;;;;;;;;7.33;7.33;;;;;;;;5047953;28;45630;-74
2022/09/14 03:57:45;;;;;;;;;8.67;8.67;;;;;;;;5051723;28;45306;-74
2022/09/14 04:00:11;;;;;;;;;9.33;8.00;;;;;;;;5056687;28;45332;-74
2022/09/14 04:02:36;;;;;;;;;9.33;8.33;;;;;;;;5050749;28;45213;-74
2022/09/14 04:05:01;;;;;;;;;8.67;8.00;;;;;;;;5055120;28;45510;-75
2022/09/14 04:07:26;;;;;;;;;7.00;7.00;;;;;;;;5053673;28;45440;-74
2022/09/14 04:09:52;;;;;;;;;3.33;3.33;;;;;;;;5055748;28;45352;-74
2022/09/14 04:12:17;;;;;;;;;4.33;3.33;;;;;;;;5060920;28;46091;-75
2022/09/14 04:14:42;;;;;;;;;5.00;4.00;;;;;;;;5056953;28;45308;-74
2022/09/14 04:17:07;;;;;;;;;4.67;4.33;;;;;;;;5042055;28;45317;-74
2022/09/14 04:19:33;;;;;;;;;6.33;4.67;;;;;;;;5051545;28;46514;-74
2022/09/14 04:21:58;;;;;;;;;4.33;4.00;;;;;;;;5044425;28;45538;-74
2022/09/14 04:24:24;;;;;;;;;5.67;5.00;;;;;;;;5053931;28;45300;-74
2022/09/14 04:26:49;;;;;;;;;4.67;4.33;;;;;;;;5047841;28;45317;-74
2022/09/14 04:29:14;;;;;;;;;9.67;4.67;;;;;;;;5053100;28;45326;-74
2022/09/14 04:31:39;;;;;;;;;5.00;5.00;;;;;;;;5052148;28;45435;-73
2022/09/14 04:34:05;;;;;;;;;6.67;6.00;;;;;;;;5058285;28;45407;-74
2022/09/14 04:36:30;;;;;;;;;6.67;6.67;;;;;;;;5056162;28;45343;-74
2022/09/14 04:38:56;;;;;;;;;6.00;5.00;;;;;;;;5073148;28;47846;-74
2022/09/14 04:41:22;;;;;;;;;6.33;6.33;;;;;;;;5059267;28;45213;-74
2022/09/14 04:43:49;;;;;;;;;5.67;5.67;;;;;;;;5069700;28;45396;-74
2022/09/14 04:46:16;;;;;;;;;6.33;6.33;;;;;;;;5073786;28;45744;-74
2022/09/14 04:48:41;;;;;;;;;9.33;8.00;;;;;;;;5054571;28;45425;-74
2022/09/14 04:51:08;;;;;;;;;6.67;5.00;;;;;;;;5058676;28;45317;-74
2022/09/14 04:53:34;;;;;;;;;8.67;7.00;;;;;;;;5059042;28;45322;-74
2022/09/14 04:56:00;;;;;;;;;5.00;5.00;;;;;;;;5047484;28;45315;-74
2022/09/14 04:58:27;;;;;;;;;6.33;5.00;;;;;;;;5048112;28;46558;-75
2022/09/14 05:00:52;;;;;;;;;8.33;5.33;;;;;;;;5055917;28;45457;-74
2022/09/14 05:03:18;;;;;;;;;6.67;6.67;;;;;;;;5051840;28;45362;-74
2022/09/14 05:05:43;;;;;;;;;7.33;7.33;;;;;;;;5058757;28;45288;-74
2022/09/14 05:08:08;;;;;;;;;5.67;5.67;;;;;;;;5051811;28;45285;-74
2022/09/14 05:10:33;;;;;;;;;8.33;5.67;;;;;;;;5061859;28;45306;-72
2022/09/14 05:12:58;;;;;;;;;6.33;5.67;;;;;;;;5054093;28;45722;-75
2022/09/14 05:15:24;;;;;;;;;8.00;7.00;;;;;;;;5049675;28;45655;-75
2022/09/14 05:17:49;;;;;;;;;9.67;6.67;;;;;;;;5050076;28;45595;-74
2022/09/14 05:20:14;;;;;;;;;7.67;6.67;;;;;;;;5056777;28;45401;-76
2022/09/14 05:22:39;;;;;;;;;7.00;7.00;;;;;;;;5054144;28;45397;-76
2022/09/14 05:25:05;;;;;;;;;6.67;5.67;;;;;;;;5059559;28;45232;-74
2022/09/14 05:27:30;;;;;;;;;7.00;5.00;;;;;;;;5056406;28;46905;-75
2022/09/14 05:29:55;;;;;;;;;5.00;2.33;;;;;;;;5059314;28;45238;-74
2022/09/14 05:32:20;;;;;;;;;6.00;6.00;;;;;;;;5057945;28;45316;-75
2022/09/14 05:34:45;;;;;;;;;9.00;9.00;;;;;;;;5058944;28;45406;-74
2022/09/14 05:37:11;;;;;;;;;6.67;5.67;;;;;;;;5057785;28;45436;-77
2022/09/14 05:39:37;;;;;;;;;8.00;6.67;;;;;;;;5059789;28;45593;-73
2022/09/14 05:42:02;;;;;;;;;8.00;8.00;;;;;;;;5055321;28;45236;-74
2022/09/14 05:44:27;;;;;;;;;10.00;8.67;;;;;;;;5058487;28;45613;-72
2022/09/14 05:46:53;;;;;;;;;11.00;9.00;;;;;;;;5056580;28;47132;-73
2022/09/14 05:49:18;;;;;;;;;7.33;6.00;;;;;;;;5060324;28;45480;-73
2022/09/14 05:51:43;;;;;;;;;8.00;7.33;;;;;;;;5059936;28;45494;-73
2022/09/14 05:54:10;;;;;;;;;13.33;9.33;;;;;;;;5057727;28;45396;-74
2022/09/14 05:56:35;;;;;;;;;9.33;8.00;;;;;;;;5058680;28;45611;-74
2022/09/14 05:59:01;;;;;;;;;9.33;7.67;;;;;;;;5057223;28;45471;-74
2022/09/14 06:01:27;;;;;;;;;8.00;7.00;;;;;;;;5059938;28;45315;-75
2022/09/14 06:03:53;;;;;;;;;9.33;8.00;;;;;;;;5056775;28;46298;-76
2022/09/14 06:06:19;;;;;;;;;8.33;6.67;;;;;;;;5059341;28;45512;-75
2022/09/14 06:08:45;;;;;;;;;11.00;9.67;;;;;;;;5056504;28;45368;-75
2022/09/14 06:11:15;;;;;;;;;6.67;6.67;;;;;;;;5059778;28;45502;-75
2022/09/14 06:13:40;;;;;;;;;9.33;8.00;;;;;;;;5056810;28;45324;-74
2022/09/14 06:16:25;;;;;;;;;8.33;8.33;;;;;;;;5059422;28;47199;-75
2022/09/14 06:18:52;;;;;;;;;10.00;8.67;;;;;;;;5056621;28;45509;-75
2022/09/14 06:21:18;;;;;;;;;9.00;8.67;;;;;;;;5059464;28;45367;-74
2022/09/14 06:23:45;;;;;;;;;10.00;7.67;;;;;;;;5056927;28;45662;-75
2022/09/14 06:26:12;;;;;;;;;6.67;6.67;;;;;;;;5058872;28;46245;-75
2022/09/14 06:28:38;;;;;;;;;7.00;6.67;;;;;;;;5056594;28;45389;-74
2022/09/14 06:31:03;;;;;;;;;8.00;8.00;;;;;;;;5059467;28;45507;-75
2022/09/14 06:33:29;;;;;;;;;7.67;7.67;;;;;;;;5056924;28;45349;-74
2022/09/14 06:36:03;;;;;;;;;7.00;7.00;;;;;;;;5058755;28;45331;-74
2022/09/14 06:38:28;;;;;;;;;7.00;7.00;;;;;;;;5053618;28;45332;-74
2022/09/14 06:40:58;;;;;;;;;8.00;6.33;;;;;;;;5057869;28;45248;-75
2022/09/14 06:43:23;;;;;;;;;8.67;7.00;;;;;;;;5051951;28;45393;-74
2022/09/14 06:45:55;;;;;;;;;5.00;5.00;;;;;;;;5047912;28;46364;-74
2022/09/14 06:48:20;;;;;;;;;9.00;8.00;;;;;;;;5053488;28;45382;-74
2022/09/14 06:50:45;;;;;;;;;5.00;5.00;;;;;;;;5047628;28;45482;-73
2022/09/14 06:53:10;;;;;;;;;7.00;6.00;;;;;;;;5051374;28;45383;-74
2022/09/14 06:55:35;;;;;;;;;5.67;5.67;;;;;;;;5050271;28;45299;-73
2022/09/14 06:58:01;;;;;;;;;6.00;6.00;;;;;;;;5048284;28;45511;-73
2022/09/14 07:00:27;;;;;;;;;11.00;6.33;;;;;;;;5048685;28;45340;-73
2022/09/14 07:02:53;;;;;;;;;7.00;7.00;;;;;;;;5050856;28;45334;-74
2022/09/14 07:05:19;;;;;;;;;7.00;5.00;;;;;;;;5053562;28;47384;-73
2022/09/14 07:07:45;;;;;;;;;9.67;8.67;;;;;;;;5051916;28;45532;-74
2022/09/14 07:10:10;;;;;;;;;8.00;7.00;;;;;;;;5055425;28;45328;-73
2022/09/14 07:12:35;;;;;;;;;7.00;7.00;;;;;;;;5050989;28;45479;-73
2022/09/14 07:15:00;;;;;;;;;6.67;5.33;;;;;;;;5058015;28;45309;-74
2022/09/14 07:17:26;;;;;;;;;10.33;7.67;;;;;;;;5052582;28;45354;-74
2022/09/14 07:19:51;;;;;;;;;6.00;5.00;;;;;;;;5051956;28;45443;-74
2022/09/14 07:22:16;;;;;;;;;7.00;7.00;;;;;;;;5054778;28;45240;-74
2022/09/14 07:24:41;;;;;;;;;7.33;6.00;;;;;;;;5055966;28;45452;-74
2022/09/14 07:27:06;;;;;;;;;6.00;6.00;;;;;;;;5052437;28;45406;-74
2022/09/14 07:29:32;;;;;;;;;7.00;7.00;;;;;;;;5054510;28;45211;-73
2022/09/14 07:31:57;;;;;;;;;8.00;8.00;;;;;;;;5068113;28;47158;-74
2022/09/14 07:34:23;;;;;;;;;6.67;6.67;;;;;;;;5051136;28;45477;-73
2022/09/14 07:36:48;;;;;;;;;10.00;8.00;;;;;;;;5056448;28;45382;-73
2022/09/14 07:39:15;;;;;;;;;9.00;7.00;;;;;;;;5065246;28;45394;-73
2022/09/14 07:41:42;;;;;;;;;7.67;6.67;;;;;;;;5049681;28;45474;-73
2022/09/14 07:44:08;;;;;;;;;7.67;6.00;;;;;;;;5052217;28;45382;-73
2022/09/14 07:46:38;;;;;;;;;8.00;5.67;;;;;;;;5040748;28;45362;-73
2022/09/14 07:49:04;;;;;;;;;6.67;5.67;;;;;;;;5053535;28;45350;-72
2022/09/14 07:51:29;;;;;;;;;9.00;7.00;;;;;;;;5062318;27;46469;-73
2022/09/14 07:53:55;;;;;;;;;7.00;7.00;;;;;;;;5055461;28;45365;-73
2022/09/14 07:56:20;;;;;;;;;8.00;6.67;;;;;;;;5056906;28;45307;-74
2022/09/14 07:58:46;;;;;;;;;7.67;7.33;;;;;;;;5053393;28;45624;-74
2022/09/14 08:01:12;;;;;;;;;9.33;7.67;;;;;;;;5049270;28;45452;-75
2022/09/14 08:03:38;;;;;;;;;8.67;7.67;;;;;;;;5044691;28;45280;-73
2022/09/14 08:06:08;;;;;;;;;7.00;7.00;;;;;;;;5050480;28;45472;-74
2022/09/14 08:08:38;;;;;;;;;8.75;7.00;;;;;;;;5068266;28;45419;-73
2022/09/14 08:11:23;;;;;;;;;8.67;7.00;;;;;;;;5060544;28;45713;-74
2022/09/14 08:13:50;;;;;;;;;6.75;6.50;;;;;;;;5052446;28;46161;-73
2022/09/14 08:16:17;;;;;;;;;6.25;6.00;;;;;;;;5057431;28;45478;-74
2022/09/14 08:18:42;;;;;;;;;7.00;5.00;;;;;;;;5053178;28;45551;-75
2022/09/14 08:21:08;;;;;;;;;7.00;7.00;;;;;;;;5053631;28;45378;-74
2022/09/14 08:23:34;;;;;;;;;9.00;7.00;;;;;;;;5056142;28;45074;-75
2022/09/14 08:26:03;;;;;;;;;9.00;8.00;;;;;;;;5060154;28;45335;-75
2022/09/14 08:28:29;;;;;;;;;9.25;8.50;;;;;;;;5053312;28;45505;-76
2022/09/14 08:30:54;;;;;;;;;7.25;7.25;;;;;;;;5060174;28;45702;-74
2022/09/14 08:33:19;;;;;;;;;6.00;6.00;;;;;;;;5055271;28;45434;-75
2022/09/14 08:35:44;;;;;;;;;7.25;6.00;;;;;;;;5049744;28;45375;-75
2022/09/14 08:38:09;;;;;;;;;6.00;6.00;;;;;;;;5047037;28;45312;-75
2022/09/14 08:40:42;;;;;;;;;9.00;5.00;;;;;;;;5089278;27;46118;-75
2022/09/14 08:43:09;;;;;;;;;4.25;4.25;;;;;;;;5052465;28;45437;-75
2022/09/14 08:45:35;;;;;;;;;10.25;7.00;;;;;;;;5049777;28;45313;-74
2022/09/14 08:48:01;;;;;;;;;5.75;4.00;;;;;;;;5056152;28;46294;-75
2022/09/14 08:50:27;;;;;;;;;6.25;6.00;;;;;;;;5050370;28;45199;-75
2022/09/14 08:52:53;;;;;;;;;5.00;5.00;;;;;;;;5054797;28;45315;-74
2022/09/14 08:55:24;;;;;;;;;3.80;2.80;;;;;;;;5051645;28;45448;-75
2022/09/14 08:57:49;;;;;;;;;4.50;4.50;;;;;;;;5056227;28;45537;-76
2022/09/14 09:00:17;;;;;;;;;6.25;6.00;;;;;;;;5054580;28;45310;-74
2022/09/14 09:02:45;;;;;;;;;5.25;5.00;;;;;;;;5055176;28;46207;-75
2022/09/14 09:05:24;;;;;;;;;6.80;5.20;;;;;;;;5060094;28;45715;-74
2022/09/14 09:07:59;;;;;;;;;5.75;5.00;;;;;;;;5054008;28;45403;-74
2022/09/14 09:10:26;;;;;;;;;8.75;6.75;;;;;;;;5056717;28;45601;-73
2022/09/14 09:12:54;;;;;;;;;6.75;6.75;;;;;;;;5053198;28;45375;-73
2022/09/14 09:15:22;;;;;;;;;6.25;6.25;;;;;;;;5058262;28;45453;-72
2022/09/14 09:17:50;;;;;;;;;5.25;5.25;;;;;;;;5056934;28;45515;-72
2022/09/14 09:20:34;;;;;;;;;7.00;6.00;;;;;;;;5060029;28;45435;-72
2022/09/14 09:23:05;;;;;;;;;4.00;4.00;;;;;;;;5057374;28;46726;-72
2022/09/14 09:25:39;;;;;;;;;8.00;5.00;;;;;;;;5059236;28;45487;-72
2022/09/14 09:28:09;;;;;;;;;4.00;4.00;;;;;;;;5056013;28;45362;-72
2022/09/14 09:30:34;;;;;;;;;4.40;3.60;;;;;;;;5059759;28;45584;-72
2022/09/14 09:33:00;;;;;;;;;6.25;3.50;;;;;;;;5057383;28;45439;-72
2022/09/14 09:35:25;;;;;;;;;5.00;5.00;;;;;;;;5058844;28;45434;-72
2022/09/14 09:37:50;;;;;;;;;3.00;3.00;;;;;;;;5057490;28;45439;-72
2022/09/14 09:40:17;;;;;;;;;2.25;2.25;;;;;;;;5049159;28;46032;-72
2022/09/14 09:43:01;;;;;;;;;3.00;3.00;;;;;;;;5054582;28;46450;-72
2022/09/14 09:45:44;;;;;;;;;2.40;2.40;;;;;;;;5059611;28;45406;-72
2022/09/14 09:48:10;;;;;;;;;4.20;4.00;;;;;;;;5056306;28;45543;-72
2022/09/14 09:50:35;;;;;;;;;3.00;3.00;;;;;;;;5059408;28;45450;-72
2022/09/14 09:53:00;;;;;;;;;2.25;2.25;;;;;;;;5053922;28;48090;-72
2022/09/14 09:55:31;;;;;;;;;4.00;4.00;;;;;;;;5059332;28;45473;-72
2022/09/14 09:58:16;;;;;;;;;4.20;3.00;;;;;;;;5056996;28;45495;-72
2022/09/14 10:00:53;;;;;;;;;3.60;2.60;;;;;;;;5057658;28;46018;-72
2022/09/14 10:03:24;;;;;;;;;1.60;1.60;;;;;;;;5057940;28;46363;-73
2022/09/14 10:05:58;;;;;;;;;2.20;2.20;;;;;;;;5058202;28;45403;-72
2022/09/14 10:08:24;;;;;;;;;4.40;3.40;;;;;;;;5054703;28;45423;-71
2022/09/14 10:10:49;;;;;;;;;3.80;3.00;;;;;;;;5059355;28;45334;-71
2022/09/14 10:13:20;;;;;;;;;4.00;4.00;;;;;;;;5056737;28;45777;-71
2022/09/14 10:15:45;;;;;;;;;3.00;3.00;;;;;;;;5055543;28;45184;-72
2022/09/14 10:18:11;;;;;;;;;2.00;2.00;;;;;;;;5049269;28;45466;-72
2022/09/14 10:20:37;;;;;;;;;3.25;2.00;;;;;;;;5073140;28;45328;-72
2022/09/14 10:23:18;;;;;;;;;1.80;1.80;;;;;;;;5052706;28;46948;-72
2022/09/14 10:25:50;;;;;;;;;2.40;2.40;;;;;;;;5059281;28;45301;-72
2022/09/14 10:28:25;;;;;;;;;3.80;3.00;;;;;;;;5051718;28;45481;-73
2022/09/14 10:30:54;;;;;;;;;2.40;2.40;;;;;;;;5047097;28;45311;-72
2022/09/14 10:33:20;;;;;;;;;1.80;1.80;;;;;;;;5043761;28;45912;-72
2022/09/14 10:35:54;;;;;;;;;3.50;3.50;;;;;;;;5046602;28;45194;-72
2022/09/14 10:38:19;;;;;;;;;3.00;1.40;;;;;;;;5044782;28;45413;-72
2022/09/14 10:40:47;;;;;;;;;3.75;2.25;;;;;;;;5056420;28;45542;-71
2022/09/14 10:43:14;;;;;;;;;4.00;3.20;;;;;;;;5048162;28;45492;-72
2022/09/14 10:45:43;;;;;;;;;3.00;3.00;;;;;;;;5057586;28;45505;-73
2022/09/14 10:48:11;;;;;;;;;2.40;2.00;;;;;;;;5055721;28;45604;-72
2022/09/14 10:50:42;;;;;;;;;2.20;2.20;;;;;;;;5056664;28;45287;-72
2022/09/14 10:53:10;;;;;;;;;2.80;2.80;;;;;;;;5052794;28;45217;-70
2022/09/14 10:55:52;;;;;;;;;2.80;2.80;;;;;;;;5071263;28;45318;-73
2022/09/14 10:58:36;;;;;;;;;3.00;3.00;;;;;;;;5048202;28;45317;-72
2022/09/14 11:01:01;;;;;;;;;0.40;0.40;;;;;;;;5058391;28;45329;-72
2022/09/14 11:03:36;;;;;;;;;5.00;4.25;;;;;;;;5048431;28;45443;-72
2022/09/14 11:06:31;;;;;;;;;2.00;2.00;;;;;;;;5072627;28;45284;-72
2022/09/14 11:09:12;;;;;;;;;0.60;0.20;;;;;;;;4996148;28;45545;-72
2022/09/14 11:11:46;;;;;;;;;3.00;3.00;;;;;;;;5057751;28;45442;-72
2022/09/14 11:14:30;;;;;;;;;2.40;1.60;;;;;;;;5051501;28;45442;-72
2022/09/14 11:16:55;;;;;;;;;2.00;1.20;;;;;;;;5056333;28;45272;-72
2022/09/14 11:19:36;;;;;;;;;3.75;3.50;;;;;;;;5058550;28;45214;-72
2022/09/14 11:22:11;;;;;;;;;1.60;1.60;;;;;;;;5056340;28;45731;-72
2022/09/14 11:24:40;;;;;;;;;1.20;1.20;;;;;;;;5071930;28;47128;-72
2022/09/14 11:27:25;;;;;;;;;2.60;2.20;;;;;;;;5071408;28;45439;-72
2022/09/14 11:29:50;;;;;;;;;0.20;0.20;;;;;;;;5067981;28;45315;-72
2022/09/14 11:32:27;;;;;;;;;3.25;2.75;;;;;;;;5050334;28;45594;-72
2022/09/14 11:34:56;;;;;;;;;3.80;2.60;;;;;;;;5054564;28;45267;-72
2022/09/14 11:37:34;;;;;;;;;2.00;1.20;;;;;;;;5052047;28;45645;-72
2022/09/14 11:40:04;;;;;;;;;1.80;1.80;;;;;;;;5056639;28;45454;-72
2022/09/14 11:42:32;;;;;;;;;1.00;0.60;;;;;;;;5058788;28;45354;-72
2022/09/14 11:45:02;;;;;;;;;2.20;2.00;;;;;;;;5075371;28;46887;-72
2022/09/14 11:47:34;;;;;;;;;3.20;2.80;;;;;;;;5079362;27;45712;-72
2022/09/14 11:50:02;;;;;;;;;2.20;2.20;;;;;;;;5054521;28;45391;-72
2022/09/14 11:52:28;;;;;;;;;1.00;0.80;;;;;;;;5049614;28;45387;-72
2022/09/14 11:54:54;;;;;;;;;1.00;1.00;;;;;;;;5057121;28;45371;-72
2022/09/14 11:57:23;;;;;;;;;0.50;0.50;;;;;;;;5056089;28;45454;-71
2022/09/14 11:59:53;;;;;;;;;1.00;0.20;;;;;;;;5051544;28;45257;-72
2022/09/14 12:02:21;;;;;;;;;1.20;1.20;;;;;;;;5053959;28;45288;-72
2022/09/14 12:05:09;;;;;;;;;2.80;0.80;;;;;;;;5054168;28;44984;-71
2022/09/14 12:07:46;;;;;;;;;1.60;0.20;;;;;;;;5043716;28;45380;-72
2022/09/14 12:10:15;;;;;;;;;0.80;0.80;;;;;;;;5057080;28;45353;-72
2022/09/14 12:12:40;;;;;;;;;1.20;1.20;;;;;;;;5066265;28;45928;-72
2022/09/14 12:15:11;;;;;;;;;1.00;1.00;;;;;;;;5055104;28;45349;-72
2022/09/14 12:17:36;;;;;;;;;1.80;1.80;;;;;;;;5053310;28;45485;-72
2022/09/14 12:20:20;;;;;;;;;1.25;1.25;;;;;;;;5059796;28;45342;-71
2022/09/14 12:22:47;;;;;;;;;0.40;0.00;;;;;;;;5052330;28;45470;-72
2022/09/14 12:25:17;;;;;;;;;2.40;1.60;;;;;;;;5060632;28;45457;-72
2022/09/14 12:27:44;;;;;;;;;0.60;0.60;;;;;;;;5054626;28;45675;-72
2022/09/14 12:30:27;;;;;;;;;1.20;0.20;;;;;;;;5065294;28;45434;-72
2022/09/14 12:32:53;;;;;;;;;0.80;0.80;;;;;;;;5051181;28;45600;-71
2022/09/14 12:35:33;;;;;;;;;1.00;1.00;;;;;;;;5052812;28;46293;-72
2022/09/14 12:37:59;;;;;;;;;1.80;0.20;;;;;;;;5047718;28;45368;-72
2022/09/14 12:40:27;;;;;;;;;0.50;0.50;;;;;;;;5066530;28;45532;-70
2022/09/14 12:42:53;;;;;;;;;2.20;0.20;;;;;;;;5052364;28;45715;-70
2022/09/14 12:45:37;;;;;;;;;0.25;0.00;;;;;;;;5048371;28;45391;-71
2022/09/14 12:48:02;;;;;;;;;1.00;1.00;;;;;;;;5050165;28;45461;-72
2022/09/14 12:50:30;;;;;;;;;0.50;0.50;;;;;;;;5049523;28;45312;-72
2022/09/14 12:52:55;;;;;;;;;2.80;0.20;;;;;;;;5068692;28;45987;-71
2022/09/14 12:55:36;;;;;;;;;0.50;0.25;;;;;;;;5051319;28;46516;-71
2022/09/14 12:58:01;;;;;;;;;0.00;0.00;;;;;;;;5053997;28;45389;-72
2022/09/14 13:00:27;;;;;;;;;2.00;1.25;;;;;;;;5068099;28;45530;-72
2022/09/14 13:03:02;;;;;;;;;0.20;0.20;;;;;;;;5055751;28;45314;-72
2022/09/14 13:05:28;;;;;;;;;1.20;0.80;;;;;;;;5044034;28;45511;-71
2022/09/14 13:07:54;;;;;;;;;2.20;1.00;;;;;;;;5049348;28;45395;-72
2022/09/14 13:10:31;;;;;;;;;1.80;1.60;;;;;;;;5059923;28;45347;-71
2022/09/14 13:12:59;;;;;;;;;1.80;0.00;;;;;;;;5057378;28;45968;-72
2022/09/14 13:15:30;;;;;;;;;0.20;0.20;;;;;;;;5060206;28;45750;-72
2022/09/14 13:17:58;;;;;;;;;1.00;0.00;;;;;;;;5048802;28;45455;-72
2022/09/14 13:20:23;;;;;;;;;1.00;1.00;;;;;;;;5048147;28;45455;-72
2022/09/14 13:22:48;;;;;;;;;0.00;0.00;;;;;;;;5052494;28;45360;-72
2022/09/14 13:25:26;;;;;;;;;0.75;0.00;;;;;;;;5056043;28;45392;-71
2022/09/14 13:27:51;;;;;;;;;1.00;1.00;;;;;;;;5050067;28;45585;-72
2022/09/14 13:30:19;;;;;;;;;0.25;0.25;;;;;;;;5090401;27;45821;-72
2022/09/14 13:32:45;;;;;;;;;0.20;0.20;;;;;;;;5053742;28;45517;-71
2022/09/14 13:35:20;;;;;;;;;0.20;0.20;;;;;;;;5051742;28;45536;-71
2022/09/14 13:37:45;;;;;;;;;0.00;0.00;;;;;;;;5044871;28;45564;-71
2022/09/14 13:40:11;;;;;;;;;0.00;0.00;;;;;;;;5050192;28;45341;-72
2022/09/14 13:42:36;;;;;;;;;0.00;0.00;;;;;;;;5047595;28;45358;-72
2022/09/14 13:45:03;;;;;;;;;0.00;0.00;;;;;;;;5068329;28;47253;-72
2022/09/14 13:47:29;;;;;;;;;1.80;0.00;;;;;;;;5054805;28;45603;-71
2022/09/14 13:49:54;;;;;;;;;1.00;0.25;;;;;;;;5047426;28;45438;-71
2022/09/14 13:52:23;;;;;;;;;0.00;0.00;;;;;;;;5052274;28;45526;-72
2022/09/14 13:54:49;;;;;;;;;0.20;0.00;;;;;;;;5059223;28;45379;-71
2022/09/14 13:57:14;;;;;;;;;0.00;0.00;;;;;;;;5055941;28;45289;-71
2022/09/14 13:59:58;;;;;;;;;0.00;0.00;;;;;;;;5052430;28;45487;-72
2022/09/14 14:02:25;;;;;;;;;0.80;0.00;;;;;;;;5045374;28;45465;-72
2022/09/14 14:04:50;;;;;;;;;0.00;0.00;;;;;;;;5077673;27;47085;-71
2022/09/14 14:07:18;;;;;;;;;0.00;0.00;;;;;;;;5046207;28;45341;-71
2022/09/14 14:09:45;;;;;;;;;0.20;0.20;;;;;;;;5072234;28;45205;-71
2022/09/14 14:12:18;;;;;;;;;0.60;0.60;;;;;;;;5049836;28;45411;-71
2022/09/14 14:14:51;;;;;;;;;0.20;0.20;;;;;;;;5055372;28;45396;-71
2022/09/14 14:17:21;;;;;;;;;0.80;0.80;;;;;;;;5054905;28;45504;-72
2022/09/14 14:19:47;;;;;;;;;0.00;0.00;;;;;;;;5059494;28;45377;-72
2022/09/14 14:22:12;;;;;;;;;0.00;0.00;;;;;;;;5052783;28;45525;-71
2022/09/14 14:24:37;;;;;;;;;1.00;1.00;;;;;;;;5058099;28;45454;-71
2022/09/14 14:27:03;;;;;;;;;2.00;0.25;;;;;;;;5055918;28;45304;-71
2022/09/14 14:29:28;;;;;;;;;2.00;2.00;;;;;;;;5056807;28;45491;-71
2022/09/14 14:31:57;;;;;;;;;2.75;0.00;;;;;;;;5052281;28;45923;-71
2022/09/14 14:34:26;;;;;;;;;0.20;0.20;;;;;;;;5057950;28;46320;-72
2022/09/14 14:36:52;;;;;;;;;0.00;0.00;;;;;;;;5057246;28;45599;-72
2022/09/14 14:39:19;;;;;;;;;1.00;0.00;;;;;;;;5064172;28;45399;-71
2022/09/14 14:41:44;;;;;;;;;0.00;0.00;;;;;;;;5056643;28;45304;-71
2022/09/14 14:44:12;;;;;;;;;0.75;0.75;;;;;;;;5051600;28;45365;-71
2022/09/14 14:46:37;;;;;;;;;0.40;0.00;;;;;;;;5052703;28;45284;-71
2022/09/14 14:49:02;;;;;;;;;1.00;0.25;;;;;;;;5047848;28;45490;-71